createdAt,value
2022-11-27T00:00:11.956Z,66.22
2022-11-27T00:05:38.450Z,58.78
2022-11-27T00:10:42.159Z,58.20
2022-11-27T00:15:47.719Z,59.45
2022-11-27T00:20:51.494Z,58.17
2022-11-27T00:25:55.473Z,63.60
2022-11-27T00:31:02.064Z,70.78
2022-11-27T00:36:07.271Z,56.90
2022-11-27T00:41:15.513Z,64.13
2022-11-27T00:46:27.894Z,68.80
2022-11-27T00:51:32.785Z,64.38
2022-11-27T00:56:39.173Z,73.20
2022-11-27T01:01:45.076Z,68.13
2022-11-27T01:11:52.432Z,50.15
2022-11-27T01:16:57.693Z,59.17
2022-11-27T01:22:01.496Z,54.30
2022-11-27T01:27:05.293Z,66.60
2022-11-27T01:32:10.399Z,80.30
2022-11-27T01:37:14.156Z,78.32
2022-11-27T01:42:17.899Z,58.25
2022-11-27T01:47:36.877Z,65.63
2022-11-27T01:52:44.234Z,65.65
2022-11-27T01:57:51.121Z,58.38
2022-11-27T02:02:56.420Z,56.95
2022-11-27T02:08:04.257Z,55.92
2022-11-27T02:13:12.947Z,55.85
2022-11-27T02:18:26.412Z,48.60
2022-11-27T02:23:59.788Z,46.25
2022-11-27T02:29:07.999Z,52.08
2022-11-27T02:34:23.621Z,48.47
2022-11-27T02:39:34.506Z,52.72
2022-11-27T02:44:46.435Z,57.72
2022-11-27T02:49:52.574Z,50.58
2022-11-27T02:55:00.638Z,68.97
2022-11-27T03:00:07.675Z,54.70
2022-11-27T03:05:16.005Z,55.47
2022-11-27T03:10:23.035Z,57.85
2022-11-27T03:15:35.783Z,65.15
2022-11-27T03:20:44.292Z,67.68
2022-11-27T03:25:48.101Z,70.57
2022-11-27T03:30:53.370Z,64.30
2022-11-27T03:35:57.299Z,58.88
2022-11-27T03:41:08.140Z,67.03
2022-11-27T03:46:21.665Z,71.72
2022-11-27T03:51:37.375Z,62.65
2022-11-27T03:56:44.700Z,73.32
2022-11-27T04:01:50.482Z,80.10
2022-11-27T04:06:54.495Z,74.07
2022-11-27T04:11:58.202Z,77.78
2022-11-27T04:17:03.320Z,58.25
2022-11-27T04:22:07.042Z,69.67
2022-11-27T04:27:11.148Z,66.05
2022-11-27T04:32:17.563Z,59.65
2022-11-27T04:37:21.502Z,51.90
2022-11-27T04:42:25.330Z,42.30
2022-11-27T04:47:30.481Z,43.88
2022-11-27T04:52:34.228Z,35.10
2022-11-27T04:57:38.077Z,34.08
2022-11-27T05:02:43.341Z,38.13
2022-11-27T05:07:47.589Z,40.25
2022-11-27T05:12:51.523Z,36.65
2022-11-27T05:17:56.655Z,39.58
2022-11-27T05:23:00.364Z,35.83
2022-11-27T05:28:04.234Z,40.72
2022-11-27T05:33:09.423Z,34.50
2022-11-27T05:38:13.524Z,36.17
2022-11-27T05:43:17.260Z,39.90
2022-11-27T05:48:22.320Z,37.72
2022-11-27T05:53:26.103Z,41.90
2022-11-27T05:58:29.950Z,40.80
2022-11-27T06:03:35.519Z,36.70
2022-11-27T06:08:40.292Z,39.58
2022-11-27T06:13:45.136Z,44.55
2022-11-27T06:18:52.281Z,48.13
2022-11-27T06:23:57.619Z,44.13
2022-11-27T06:29:02.482Z,38.25
2022-11-27T06:34:08.181Z,47.05
2022-11-27T06:39:12.841Z,48.10
2022-11-27T06:44:16.623Z,48.55
2022-11-27T06:49:22.287Z,48.45
2022-11-27T06:54:26.325Z,49.78
2022-11-27T06:59:30.356Z,50.47
2022-11-27T07:04:35.607Z,48.83
2022-11-27T07:09:39.433Z,62.08
2022-11-27T07:14:43.282Z,45.95
2022-11-27T07:19:48.627Z,53.53
2022-11-27T07:24:52.571Z,50.92
2022-11-27T07:29:56.437Z,59.88
2022-11-27T07:35:01.788Z,49.30
2022-11-27T07:40:07.027Z,54.75
2022-11-27T07:45:12.055Z,46.77
2022-11-27T07:50:18.011Z,51.77
2022-11-27T07:55:22.538Z,50.65
2022-11-27T08:00:27.390Z,53.50
2022-11-27T08:05:35.353Z,47.50
2022-11-27T08:10:40.999Z,111.18
2022-11-27T08:15:46.189Z,48.03
2022-11-27T08:20:51.672Z,47.33
2022-11-27T08:25:55.756Z,47.97
2022-11-27T08:31:01.371Z,45.95
2022-11-27T08:36:10.628Z,46.88
2022-11-27T08:41:17.848Z,46.15
2022-11-27T08:46:24.105Z,49.78
2022-11-27T08:51:29.926Z,42.95
2022-11-27T09:01:38.337Z,52.25
2022-11-27T09:06:43.659Z,43.33
2022-11-27T09:11:48.542Z,63.17
2022-11-27T09:16:53.825Z,38.95
2022-11-27T09:21:59.607Z,35.40
2022-11-27T09:27:03.706Z,46.75
2022-11-27T09:32:07.814Z,72.75
2022-11-27T09:37:14.004Z,39.28
2022-11-27T09:42:38.900Z,75.68
2022-11-27T09:47:49.237Z,40.92
2022-11-27T09:52:59.394Z,64.22
2022-11-27T09:58:17.625Z,53.60
2022-11-27T10:03:29.355Z,62.65
2022-11-27T10:08:48.200Z,37.45
2022-11-27T10:14:04.684Z,45.10
2022-11-27T10:19:23.828Z,32.72
2022-11-27T10:24:41.067Z,68.70
2022-11-27T10:29:52.520Z,34.03
2022-11-27T10:35:01.742Z,36.13
2022-11-27T10:40:19.955Z,39.30
2022-11-27T10:45:31.177Z,52.78
2022-11-27T10:50:38.277Z,32.45
2022-11-27T10:56:13.656Z,31.05
2022-11-27T11:01:23.160Z,31.33
2022-11-27T11:06:41.398Z,30.23
2022-11-27T11:11:47.416Z,37.88
2022-11-27T11:16:53.418Z,31.25
2022-11-27T11:22:01.336Z,33.20
2022-11-27T11:27:13.705Z,28.60
2022-11-27T11:32:31.532Z,34.67
2022-11-27T11:37:37.740Z,29.27
2022-11-27T11:43:11.413Z,27.48
2022-11-27T11:48:24.030Z,27.13
2022-11-27T11:53:35.160Z,28.02
2022-11-27T11:58:54.674Z,25.40
2022-11-27T12:04:11.973Z,27.08
2022-11-27T12:09:26.670Z,24.50
2022-11-27T12:14:44.343Z,23.75
2022-11-27T12:20:04.462Z,29.05
2022-11-27T12:25:23.379Z,33.33
2022-11-27T12:30:38.304Z,28.63
2022-11-27T12:35:45.841Z,33.83
2022-11-27T12:41:03.727Z,30.92
2022-11-27T12:46:16.480Z,44.92
2022-11-27T12:51:27.603Z,44.58
2022-11-27T12:56:37.151Z,44.35
2022-11-27T13:01:47.240Z,37.95
2022-11-27T13:07:01.489Z,49.88
2022-11-27T13:12:06.770Z,48.33
2022-11-27T13:17:18.218Z,44.63
2022-11-27T13:22:27.656Z,42.97
2022-11-27T13:27:36.682Z,48.00
2022-11-27T13:32:50.497Z,42.78
2022-11-27T13:38:00.724Z,41.45
2022-11-27T13:43:31.515Z,70.47
2022-11-27T13:48:39.854Z,52.05
2022-11-27T13:53:44.223Z,44.65
2022-11-27T13:58:50.065Z,47.28
2022-11-27T14:03:54.653Z,46.95
2022-11-27T14:09:01.347Z,54.45
2022-11-27T14:14:16.766Z,52.83
2022-11-27T14:19:33.527Z,55.30
2022-11-27T14:24:44.099Z,60.92
2022-11-27T14:29:50.864Z,52.22
2022-11-27T14:34:55.068Z,61.10
2022-11-27T14:39:59.317Z,53.63
2022-11-27T14:45:06.548Z,54.47
2022-11-27T14:50:14.647Z,53.95
2022-11-27T14:55:21.387Z,50.50
2022-11-27T15:00:29.009Z,53.47
2022-11-27T15:05:39.501Z,51.30
2022-11-27T15:10:44.155Z,56.15
2022-11-27T15:15:57.257Z,58.78
2022-11-27T15:21:02.220Z,52.28
2022-11-27T15:26:15.176Z,56.60
2022-11-27T15:31:28.686Z,66.85
2022-11-27T15:36:39.931Z,76.28
2022-11-27T15:41:52.415Z,59.58
2022-11-27T15:47:00.755Z,50.30
2022-11-27T15:52:05.777Z,94.68
2022-11-27T15:57:10.279Z,188.88
2022-11-27T16:02:18.287Z,138.02
2022-11-27T16:07:23.553Z,56.63
2022-11-27T16:12:28.211Z,168.60
2022-11-27T16:17:33.775Z,65.30
2022-11-27T16:22:38.107Z,59.40
2022-11-27T16:27:42.635Z,57.60
2022-11-27T16:32:51.313Z,60.55
2022-11-27T16:37:57.976Z,59.90
2022-11-27T16:43:02.669Z,58.05
2022-11-27T16:48:08.861Z,61.17
2022-11-27T16:53:14.187Z,133.18
2022-11-27T16:58:18.984Z,81.43
2022-11-27T17:03:24.717Z,80.03
2022-11-27T17:08:29.043Z,126.30
2022-11-27T17:13:33.496Z,62.13
2022-11-27T17:18:40.069Z,65.70
2022-11-27T17:23:46.946Z,67.60
2022-11-27T17:28:52.169Z,66.50
2022-11-27T17:34:00.319Z,130.98
2022-11-27T17:39:06.587Z,79.65
2022-11-27T17:44:10.909Z,69.80
2022-11-27T17:49:17.249Z,72.63
2022-11-27T17:54:22.059Z,71.65
2022-11-27T17:59:26.889Z,70.32
2022-11-27T18:04:32.971Z,73.20
2022-11-27T18:09:37.272Z,85.28
2022-11-27T18:14:41.581Z,87.40
2022-11-27T18:19:46.900Z,86.88
2022-11-27T18:24:51.139Z,94.13
2022-11-27T18:29:56.225Z,87.93
2022-11-27T18:35:01.609Z,86.17
2022-11-27T18:40:06.576Z,85.28
2022-11-27T18:45:31.329Z,86.37
2022-11-27T18:50:37.680Z,78.47
2022-11-27T18:55:41.694Z,85.57
2022-11-27T19:00:46.622Z,110.75
2022-11-27T19:05:52.206Z,97.40
2022-11-27T19:10:56.405Z,78.38
2022-11-27T19:16:01.135Z,79.10
2022-11-27T19:21:11.717Z,80.22
2022-11-27T19:26:18.760Z,84.75
2022-11-27T19:31:23.866Z,88.85
2022-11-27T19:36:30.655Z,97.33
2022-11-27T19:41:35.231Z,107.97
2022-11-27T19:46:39.926Z,107.82
2022-11-27T19:51:46.008Z,106.82
2022-11-27T19:56:50.550Z,111.88
2022-11-27T20:01:55.499Z,107.50
2022-11-27T20:07:08.188Z,104.32
2022-11-27T20:12:12.312Z,101.05
2022-11-27T20:17:16.217Z,96.22
2022-11-27T20:22:21.864Z,108.90
2022-11-27T20:32:33.092Z,101.22
2022-11-27T20:37:38.486Z,129.63
2022-11-27T20:42:42.431Z,127.45
2022-11-27T20:47:46.395Z,100.35
2022-11-27T20:52:51.731Z,105.43
2022-11-27T20:57:55.916Z,181.60
2022-11-27T21:02:59.790Z,441.38
2022-11-27T21:08:05.338Z,136.57
2022-11-27T21:13:09.449Z,109.63
2022-11-27T21:18:13.597Z,76.55
2022-11-27T21:23:20.896Z,81.10
2022-11-27T21:28:24.928Z,81.40
2022-11-27T21:33:29.413Z,82.38
2022-11-27T21:38:34.874Z,100.97
2022-11-27T21:43:39.066Z,116.05
2022-11-27T21:48:43.087Z,105.03
2022-11-27T21:53:50.217Z,122.55
2022-11-27T21:58:54.256Z,153.73
2022-11-27T22:03:58.891Z,167.18
2022-11-27T22:09:10.513Z,103.25
2022-11-27T22:14:18.213Z,106.00
2022-11-27T22:19:22.255Z,120.30
2022-11-27T22:24:27.892Z,116.65
2022-11-27T22:29:32.180Z,109.63
2022-11-27T22:34:36.232Z,101.28
2022-11-27T22:39:43.965Z,95.97
2022-11-27T22:44:49.657Z,89.65
2022-11-27T22:49:53.679Z,90.20
2022-11-27T22:54:59.818Z,90.90
2022-11-27T23:00:08.051Z,116.00
2022-11-27T23:05:12.541Z,111.30
2022-11-27T23:10:18.152Z,113.88
2022-11-27T23:15:22.119Z,125.53
2022-11-27T23:20:26.778Z,130.18
2022-11-27T23:25:35.279Z,109.63
2022-11-27T23:30:39.365Z,166.23
2022-11-27T23:35:43.299Z,197.27
2022-11-27T23:40:48.672Z,105.18
2022-11-27T23:45:55.761Z,105.30
2022-11-27T23:50:59.863Z,104.60
2022-11-27T23:56:07.176Z,123.15
